Time;durP1;ratioP1;P1;durP2;ratioP2;P2;SDS_P1;SDS_P2;PMS_P1;PMS_P2;Temp;Humidity;BMP_temperature;BMP_pressure;BME280_temperature;BME280_humidity;BME280_pressure;Samples;Min_cycle;Max_cycle;Signal;HPM_P1;HPM_P2
2021/04/09 00:00:12;;;;;;;12.32;10.05;;;2.30;70.40;;;0.35;67.92;96436.66;4972968;28;20043;-69
2021/04/09 00:02:38;;;;;;;12.32;9.52;;;2.20;70.40;;;0.33;68.09;96435.94;4930725;28;20046;-70
2021/04/09 00:05:07;;;;;;;11.63;9.23;;;2.20;70.50;;;0.32;68.40;96431.72;4917288;28;20114;-69
2021/04/09 00:07:32;;;;;;;14.13;9.82;;;2.20;70.50;;;0.31;68.11;96422.31;4967059;28;20030;-70
2021/04/09 00:09:58;;;;;;;13.70;9.95;;;2.20;70.60;;;0.30;67.86;96426.66;4968530;28;20634;-69
2021/04/09 00:12:24;;;;;;;13.48;9.73;;;2.20;70.60;;;0.32;68.43;96431.72;4952807;28;20038;-69
2021/04/09 00:14:50;;;;;;;14.25;10.02;;;2.20;70.50;;;0.30;67.85;96426.66;4933041;28;20067;-70
2021/04/09 00:17:15;;;;;;;13.55;10.38;;;2.20;70.40;;;0.27;68.28;96426.91;4949223;28;20059;-69
2021/04/09 00:19:41;;;;;;;12.70;9.00;;;2.20;70.50;;;0.26;68.49;96427.84;4932941;29;20043;-70
2021/04/09 00:22:07;;;;;;;15.80;10.05;;;2.20;70.60;;;0.23;67.96;96419.50;4949049;28;20055;-69
2021/04/09 00:24:33;;;;;;;11.93;9.73;;;2.10;70.60;;;0.23;68.06;96424.66;4955095;28;20043;-70
2021/04/09 00:26:58;;;;;;;15.13;9.50;;;2.10;70.80;;;0.23;68.05;96420.31;4949806;28;20886;-69
2021/04/09 00:29:26;;;;;;;11.65;9.23;;;2.10;70.70;;;0.21;68.02;96411.00;4917528;29;20499;-70
2021/04/09 00:31:51;;;;;;;11.73;9.00;;;2.10;70.70;;;0.20;68.31;96410.19;4953669;28;20031;-70
2021/04/09 00:34:17;;;;;;;11.38;9.07;;;2.10;70.70;;;0.20;68.45;96414.53;4936889;28;20142;-70
2021/04/09 00:36:43;;;;;;;13.05;9.32;;;2.10;70.80;;;0.17;68.52;96413.00;4948927;28;20027;-70
2021/04/09 00:39:09;;;;;;;12.27;9.60;;;2.10;70.50;;;0.16;68.38;96413.13;4935256;28;20427;-69
2021/04/09 00:41:42;;;;;;;13.15;8.73;;;2.10;70.70;;;0.16;69.70;96420.88;4936486;28;20499;-70
2021/04/09 00:44:09;;;;;;;13.32;9.48;;;2.10;70.80;;;0.16;68.61;96410.53;4951462;28;20042;-70
2021/04/09 00:46:35;;;;;;;14.93;9.15;;;2.10;70.90;;;0.16;68.38;96407.94;4929374;28;20093;-69
2021/04/09 00:49:01;;;;;;;11.35;9.45;;;2.10;70.90;;;0.16;68.87;96408.78;4933269;28;20493;-69
2021/04/09 00:51:26;;;;;;;13.75;9.32;;;2.10;70.90;;;0.14;68.95;96412.41;4935973;28;20117;-69
2021/04/09 00:53:52;;;;;;;12.55;9.65;;;2.10;70.90;;;0.15;68.71;96406.31;4936177;28;20115;-69
2021/04/09 00:56:20;;;;;;;13.60;9.45;;;2.10;70.80;;;0.13;68.66;96405.59;4921126;29;20070;-69
2021/04/09 00:58:46;;;;;;;12.80;9.30;;;2.10;70.70;;;0.12;68.76;96403.97;4928660;28;20041;-70
2021/04/09 01:01:12;;;;;;;12.82;9.50;;;2.10;70.90;;;0.11;69.00;96397.13;4944647;28;20121;-69
2021/04/09 01:03:38;;;;;;;11.05;9.38;;;2.10;70.80;;;0.10;68.95;96398.09;4936113;28;20560;-70
2021/04/09 01:06:04;;;;;;;12.27;9.13;;;2.10;70.90;;;0.06;69.00;96394.09;4948315;28;20039;-69
2021/04/09 01:08:30;;;;;;;14.02;9.55;;;2.10;70.80;;;0.05;69.23;96397.63;4964855;28;20388;-69
2021/04/09 01:10:57;;;;;;;14.20;9.88;;;2.10;70.80;;;0.03;69.09;96386.56;4967121;28;20054;-70
2021/04/09 01:13:23;;;;;;;11.35;9.55;;;2.00;70.80;;;0.02;68.96;96384.91;4934626;28;20038;-69
2021/04/09 01:15:49;;;;;;;11.32;9.07;;;2.10;71.00;;;-0.02;69.11;96385.13;4930787;28;20478;-69
2021/04/09 01:18:42;;;;;;;15.23;9.35;;;2.00;70.80;;;0.01;70.71;96388.44;4935518;28;20039;-69
2021/04/09 01:21:34;;;;;;;11.70;8.68;;;2.00;70.90;;;-0.02;70.86;96385.13;4965437;28;20129;-69
2021/04/09 01:24:14;;;;;;;12.82;9.50;;;2.00;71.00;;;-0.03;70.94;96377.50;4966258;28;20050;-70
2021/04/09 01:27:24;;;;;;;12.68;8.85;;;2.00;71.10;;;-0.04;70.85;96379.25;4948673;28;20026;-70
2021/04/09 01:30:39;;;;;;;13.07;8.50;;;2.00;71.10;;;-0.06;71.22;96373.38;4937360;28;20039;-69
2021/04/09 01:33:06;;;;;;;12.90;9.48;;;2.00;71.20;;;-0.08;68.85;96370.09;4940527;28;20086;-70
2021/04/09 01:35:32;;;;;;;11.50;9.15;;;1.90;71.20;;;-0.09;69.00;96371.03;4954979;28;20054;-70
2021/04/09 01:38:07;;;;;;;11.77;8.63;;;2.00;71.30;;;-0.07;70.43;96376.91;4934803;28;20273;-69
2021/04/09 01:40:36;;;;;;;11.35;8.52;;;2.00;71.30;;;-0.09;69.66;96367.63;4934679;28;20473;-70
2021/04/09 01:43:05;;;;;;;14.27;8.70;;;2.00;71.40;;;-0.10;69.62;96377.16;4934596;28;20118;-70
2021/04/09 01:45:31;;;;;;;10.93;7.85;;;2.00;71.30;;;-0.11;69.61;96369.50;4935501;28;20035;-70
2021/04/09 01:47:57;;;;;;;12.20;8.80;;;1.90;71.10;;;-0.12;69.26;96373.03;4931070;28;20043;-69
2021/04/09 01:50:25;;;;;;;10.88;8.60;;;1.90;71.10;;;-0.16;69.84;96364.69;4954970;28;20414;-70
2021/04/09 01:52:51;;;;;;;11.80;8.50;;;1.90;71.00;;;-0.16;69.73;96367.28;4918941;28;20052;-69
2021/04/09 01:55:16;;;;;;;10.00;7.18;;;1.80;71.00;;;-0.16;69.56;96356.13;4934576;28;20050;-69
2021/04/09 01:57:43;;;;;;;10.48;7.70;;;1.80;71.20;;;-0.19;69.65;96361.53;4948740;28;20034;-69
2021/04/09 02:00:22;;;;;;;10.63;7.47;;;1.80;71.00;;;-0.19;70.56;96359.75;4928805;28;20113;-69
2021/04/09 02:02:49;;;;;;;10.90;7.53;;;1.80;70.90;;;-0.19;69.59;96362.34;4931285;28;20423;-69
2021/04/09 02:05:16;;;;;;;13.73;7.82;;;1.80;71.10;;;-0.22;69.34;96357.41;4950479;28;20498;-69
2021/04/09 02:07:43;;;;;;;11.82;7.60;;;1.80;70.90;;;-0.24;69.57;96354.09;4931003;28;20043;-69
2021/04/09 02:10:09;;;;;;;12.65;8.15;;;1.80;70.90;;;-0.23;69.44;96354.91;4949733;28;20550;-69
2021/04/09 02:12:35;;;;;;;11.90;8.32;;;1.80;71.20;;;-0.26;69.26;96352.56;4953337;28;20039;-71
2021/04/09 02:15:02;;;;;;;10.55;7.82;;;1.70;71.20;;;-0.28;69.81;96347.50;4969432;28;20129;-69
2021/04/09 02:17:27;;;;;;;11.40;8.05;;;1.70;71.30;;;-0.26;69.42;96350.78;4966174;28;20057;-70
2021/04/09 02:19:53;;;;;;;10.43;8.20;;;1.80;71.20;;;-0.26;69.65;96350.78;4947746;28;20059;-71
2021/04/09 02:22:19;;;;;;;11.30;8.48;;;1.80;71.40;;;-0.26;69.81;96349.97;4930871;28;20422;-69
2021/04/09 02:24:48;;;;;;;10.93;8.60;;;1.80;71.50;;;-0.30;69.83;96344.22;4968497;28;20545;-67
2021/04/09 02:27:14;;;;;;;12.18;8.50;;;1.70;71.40;;;-0.32;69.88;96343.53;4935931;28;20066;-69
2021/04/09 02:29:39;;;;;;;12.45;8.43;;;1.70;71.30;;;-0.33;69.61;96344.47;4953060;28;20086;-72
2021/04/09 02:32:06;;;;;;;12.18;8.38;;;1.70;71.40;;;-0.32;69.85;96338.34;4968325;28;20105;-69
2021/04/09 02:34:31;;;;;;;11.88;8.50;;;1.80;71.40;;;-0.36;70.03;96334.34;4953533;28;20573;-69
2021/04/09 02:36:57;;;;;;;10.60;7.70;;;1.80;71.40;;;-0.37;69.76;96338.69;4977955;28;20034;-69
2021/04/09 02:39:27;;;;;;;12.50;8.40;;;1.70;71.50;;;-0.38;70.69;96336.25;4969527;28;20031;-70
2021/04/09 02:42:13;;;;;;;11.55;8.30;;;1.70;71.50;;;-0.41;71.89;96326.13;4960462;28;20110;-67
2021/04/09 02:44:38;;;;;;;12.25;8.40;;;1.70;71.50;;;-0.43;70.12;96333.19;4943805;28;20045;-70
2021/04/09 02:47:20;;;;;;;13.18;7.97;;;1.70;71.70;;;-0.45;71.70;96327.31;4935148;28;20633;-70
2021/04/09 02:49:48;;;;;;;11.75;7.88;;;1.70;71.70;;;-0.48;70.48;96324.94;4951216;28;20045;-73
2021/04/09 02:52:21;;;;;;;11.07;7.60;;;1.70;71.60;;;-0.49;70.67;96323.28;4944225;28;20035;-70
2021/04/09 02:54:51;;;;;;;11.68;8.18;;;1.60;71.70;;;-0.51;70.83;96320.00;4937541;28;20046;-70
2021/04/09 02:57:18;;;;;;;11.48;7.63;;;1.60;71.70;;;-0.52;70.43;96323.53;4937470;28;20039;-70
2021/04/09 02:59:44;;;;;;;12.48;7.72;;;1.60;71.90;;;-0.50;70.16;96319.06;4969146;28;20061;-70
2021/04/09 03:02:12;;;;;;;10.75;8.10;;;1.60;71.90;;;-0.54;70.42;96317.66;4968714;28;20030;-72
2021/04/09 03:04:37;;;;;;;10.52;7.60;;;1.60;71.80;;;-0.54;70.00;96325.41;4969804;28;20059;-70
2021/04/09 03:07:03;;;;;;;11.98;7.57;;;1.50;71.70;;;-0.57;70.15;96318.72;4952395;28;20137;-71
2021/04/09 03:09:30;;;;;;;10.45;7.13;;;1.50;71.90;;;-0.57;70.64;96320.47;4934125;28;20427;-70
2021/04/09 03:11:55;;;;;;;13.35;7.43;;;1.50;71.80;;;-0.64;70.27;96317.53;4963868;28;20094;-69
2021/04/09 03:14:21;;;;;;;11.70;7.35;;;1.40;71.50;;;-0.67;70.28;96305.66;4962565;28;20042;-70
2021/04/09 03:16:49;;;;;;;10.65;6.90;;;1.30;71.60;;;-0.71;70.64;96316.31;4938207;28;20086;-70
2021/04/09 03:19:15;;;;;;;9.52;6.45;;;1.30;71.70;;;-0.74;70.20;96309.63;4936881;28;20097;-70
2021/04/09 03:21:41;;;;;;;11.10;6.65;;;1.20;71.80;;;-0.73;70.30;96319.03;4935170;28;20126;-69
2021/04/09 03:24:07;;;;;;;9.45;6.20;;;1.20;72.00;;;-0.76;70.29;96311.50;4958184;28;20098;-70
2021/04/09 03:26:33;;;;;;;8.80;6.57;;;1.20;71.90;;;-0.77;70.26;96307.28;4933634;29;20042;-69
2021/04/09 03:28:59;;;;;;;8.02;6.07;;;1.20;72.10;;;-0.76;70.29;96301.19;4937896;28;20025;-70
2021/04/09 03:31:25;;;;;;;7.47;6.20;;;1.20;72.00;;;-0.78;70.36;96308.22;4947441;28;20591;-70
2021/04/09 03:33:50;;;;;;;9.68;6.22;;;1.20;72.10;;;-0.75;70.38;96305.41;4934177;28;20032;-71
2021/04/09 03:36:17;;;;;;;9.02;6.63;;;1.20;72.00;;;-0.77;70.29;96309.03;4921180;29;20046;-70
2021/04/09 03:38:43;;;;;;;10.02;6.18;;;1.20;72.00;;;-0.76;70.39;96301.19;4949835;28;20131;-69
2021/04/09 03:41:08;;;;;;;9.23;6.03;;;1.20;72.00;;;-0.78;70.34;96313.38;4948946;28;20549;-70
2021/04/09 03:43:34;;;;;;;9.52;6.10;;;1.20;72.00;;;-0.77;70.53;96302.13;4933486;28;20043;-70
2021/04/09 03:46:00;;;;;;;11.82;6.75;;;1.30;72.00;;;-0.78;70.40;96303.06;4950676;28;20034;-70
2021/04/09 03:48:26;;;;;;;8.45;6.47;;;1.30;72.00;;;-0.78;70.41;96308.22;4921365;28;20043;-69
2021/04/09 03:50:51;;;;;;;10.77;7.43;;;1.30;72.30;;;-0.79;70.31;96298.00;4902738;28;20768;-70
2021/04/09 03:53:17;;;;;;;9.63;6.78;;;1.30;72.20;;;-0.85;70.60;96296.72;4948495;28;20027;-69
2021/04/09 03:55:43;;;;;;;10.50;6.63;;;1.20;72.00;;;-0.84;70.65;96303.50;4951797;28;20054;-71
2021/04/09 03:58:09;;;;;;;10.57;6.63;;;1.20;72.00;;;-0.87;70.76;96288.25;4935346;28;20450;-70
2021/04/09 04:00:34;;;;;;;9.25;6.80;;;1.20;71.90;;;-0.88;70.70;96296.94;4961221;28;20510;-68
2021/04/09 04:03:00;;;;;;;8.82;6.70;;;1.10;72.10;;;-0.88;70.54;96298.69;4951474;28;20050;-71
2021/04/09 04:05:26;;;;;;;9.20;6.53;;;1.20;72.10;;;-0.89;70.85;96300.47;4949293;28;20078;-68
2021/04/09 04:07:52;;;;;;;9.82;6.55;;;1.20;72.20;;;-0.91;70.70;96302.31;4918484;28;20038;-69
2021/04/09 04:10:18;;;;;;;11.50;7.88;;;1.10;72.20;;;-0.95;70.69;96299.13;4951883;28;20085;-70
2021/04/09 04:12:43;;;;;;;10.60;6.75;;;1.10;72.00;;;-0.94;70.89;96298.19;4948166;28;20145;-70
2021/04/09 04:15:09;;;;;;;9.63;6.80;;;1.10;72.30;;;-0.92;70.86;96296.31;4949171;28;20113;-70
2021/04/09 04:17:35;;;;;;;10.90;6.50;;;1.10;72.20;;;-0.89;70.84;96304.81;4954047;28;20041;-69
2021/04/09 04:20:03;;;;;;;10.00;6.85;;;1.10;72.50;;;-0.91;71.04;96297.13;4943643;28;20122;-70
2021/04/09 04:22:29;;;;;;;9.93;6.72;;;1.10;72.40;;;-0.90;71.01;96292.81;4959109;28;20140;-69
2021/04/09 04:24:54;;;;;;;11.00;6.40;;;1.20;72.30;;;-0.91;71.03;96297.13;4935051;28;20039;-68
2021/04/09 04:27:20;;;;;;;8.68;6.43;;;1.20;72.20;;;-0.94;70.82;96292.19;4969356;28;20031;-69
2021/04/09 04:29:46;;;;;;;11.48;7.03;;;1.10;72.20;;;-0.94;70.95;96287.88;4934650;28;20525;-68
2021/04/09 04:32:12;;;;;;;9.25;6.30;;;1.10;72.00;;;-0.93;71.04;96286.09;4969197;28;20142;-70
2021/04/09 04:34:37;;;;;;;8.75;5.95;;;1.10;72.10;;;-0.94;70.97;96297.38;4945599;28;20123;-68
2021/04/09 04:37:03;;;;;;;9.07;6.63;;;1.10;72.10;;;-0.97;70.77;96292.44;4967893;28;20061;-70
2021/04/09 04:39:29;;;;;;;8.38;5.82;;;1.10;72.20;;;-0.98;71.00;96286.44;4948575;28;20571;-68
2021/04/09 04:41:55;;;;;;;9.35;6.10;;;1.00;72.00;;;-0.97;71.01;96292.44;4950410;28;20051;-63
2021/04/09 04:44:20;;;;;;;7.78;5.53;;;1.10;72.00;;;-1.00;70.92;96288.31;4946203;28;20116;-68
2021/04/09 04:46:46;;;;;;;10.68;5.65;;;1.00;72.20;;;-0.99;70.58;96289.16;4957468;28;20054;-68
2021/04/09 04:49:12;;;;;;;9.82;5.40;;;1.00;72.00;;;-1.00;70.97;96295.25;4918030;28;20046;-68
2021/04/09 04:51:38;;;;;;;7.75;5.22;;;1.00;72.00;;;-0.98;70.95;96293.38;4958386;28;20051;-68
2021/04/09 04:54:03;;;;;;;9.90;5.78;;;1.10;71.90;;;-0.95;70.73;96290.56;4953250;28;20133;-68
2021/04/09 04:56:29;;;;;;;11.30;6.65;;;1.10;72.00;;;-0.94;70.74;96292.19;4953523;28;20035;-68
2021/04/09 04:58:55;;;;;;;11.30;7.60;;;1.10;72.10;;;-0.91;70.76;96297.13;4967304;28;20325;-69
2021/04/09 05:01:21;;;;;;;14.10;6.70;;;1.20;72.00;;;-0.88;70.75;96302.09;4934716;28;20139;-68
2021/04/09 05:03:47;;;;;;;12.13;6.57;;;1.10;71.90;;;-0.89;70.78;96295.28;4968522;28;20082;-69
2021/04/09 05:06:14;;;;;;;11.52;7.05;;;1.20;71.80;;;-0.92;70.96;96295.50;4970659;28;20125;-68
2021/04/09 05:08:39;;;;;;;10.38;7.45;;;1.20;71.60;;;-0.93;70.93;96293.84;4961128;28;20047;-68
2021/04/09 05:11:05;;;;;;;11.43;7.28;;;1.20;71.70;;;-0.91;70.73;96297.13;4947486;28;20093;-73
2021/04/09 05:13:31;;;;;;;11.65;7.63;;;1.20;71.80;;;-0.88;70.90;96286.59;4984981;28;20506;-69
2021/04/09 05:15:56;;;;;;;12.05;7.80;;;1.30;71.80;;;-0.85;71.08;96296.72;4948968;28;20058;-69
2021/04/09 05:18:22;;;;;;;13.85;8.02;;;1.30;72.00;;;-0.82;71.07;96291.31;4936624;28;20051;-73
2021/04/09 05:20:48;;;;;;;34.05;21.42;;;1.40;71.90;;;-0.76;71.27;96290.03;4968626;28;20038;-69
2021/04/09 05:23:14;;;;;;;16.08;9.80;;;1.40;72.10;;;-0.72;71.02;96299.19;4935779;28;20119;-69
2021/04/09 05:25:39;;;;;;;18.10;12.70;;;1.60;71.70;;;-0.65;71.44;96290.88;4951939;28;20466;-73
2021/04/09 05:28:05;;;;;;;25.70;15.57;;;1.70;71.90;;;-0.55;71.78;96297.91;4951910;28;20035;-69
2021/04/09 05:30:31;;;;;;;15.20;10.65;;;1.80;72.00;;;-0.48;71.29;96293.94;4952350;28;20047;-68
2021/04/09 05:32:57;;;;;;;12.50;7.57;;;1.90;70.90;;;-0.40;71.48;96283.84;4987529;28;20030;-74
2021/04/09 05:35:24;;;;;;;10.75;7.55;;;2.10;70.40;;;-0.36;71.10;96280.09;4964746;28;20097;-74
2021/04/09 05:37:51;;;;;;;10.25;7.22;;;2.00;70.10;;;-0.31;71.27;96290.88;4971954;28;20035;-69
2021/04/09 05:40:17;;;;;;;15.25;10.90;;;2.10;69.40;;;-0.19;70.85;96292.53;4967544;28;20069;-68
2021/04/09 05:42:43;;;;;;;11.10;6.40;;;2.20;69.10;;;-0.07;70.80;96289.00;4952582;28;20176;-76
2021/04/09 05:45:09;;;;;;;11.02;6.30;;;2.40;68.60;;;0.04;70.35;96288.19;4968371;28;20828;-74
2021/04/09 05:47:35;;;;;;;8.25;6.00;;;2.50;68.00;;;0.20;70.16;96292.94;4933900;28;20037;-70
2021/04/09 05:50:01;;;;;;;9.90;6.30;;;2.80;67.80;;;0.37;70.40;96297.63;4961804;28;20035;-76
2021/04/09 05:52:27;;;;;;;18.60;12.50;;;3.00;67.20;;;0.54;70.08;96294.53;4983553;28;20030;-71
2021/04/09 05:54:52;;;;;;;26.23;17.40;;;3.20;66.60;;;0.73;69.82;96295.66;4967539;28;20035;-77
2021/04/09 05:57:18;;;;;;;10.27;6.93;;;3.50;66.10;;;0.91;69.72;96296.75;4929066;29;20126;-70
2021/04/09 05:59:45;;;;;;;14.88;5.47;;;3.80;64.60;;;1.08;69.04;96298.78;4932561;29;20043;-77
2021/04/09 06:02:11;;;;;;;7.57;4.80;;;4.00;63.30;;;1.23;68.72;96281.97;4924163;28;20035;-69
2021/04/09 06:04:37;;;;;;;10.00;5.18;;;4.30;62.20;;;1.41;68.70;96286.59;4965643;28;20092;-68
2021/04/09 06:07:02;;;;;;;6.63;4.50;;;4.60;61.50;;;1.56;67.90;96280.09;4967661;28;20038;-69
2021/04/09 06:09:28;;;;;;;13.82;7.70;;;4.70;60.40;;;1.73;68.02;96276.91;4945308;29;20039;-74
2021/04/09 06:11:55;;;;;;;13.18;8.35;;;5.00;59.70;;;1.92;67.64;96278.75;4932968;29;20062;-76
2021/04/09 06:14:21;;;;;;;14.80;10.38;;;5.10;59.00;;;2.09;67.38;96279.91;4943072;28;20031;-75
2021/04/09 06:16:46;;;;;;;10.25;6.07;;;5.30;58.70;;;2.26;66.71;96281.03;4934215;28;20151;-74
2021/04/09 06:19:12;;;;;;;11.57;7.50;;;5.60;58.20;;;2.43;66.67;96281.22;4950423;28;20093;-69
2021/04/09 06:21:38;;;;;;;34.13;22.90;;;5.70;57.20;;;2.59;66.11;96274.69;4951823;28;20055;-73
2021/04/09 06:24:05;;;;;;;19.85;15.00;;;5.90;56.70;;;2.73;65.97;96272.50;4966682;28;20039;-69
2021/04/09 06:26:32;;;;;;;10.60;6.05;;;6.00;55.80;;;2.86;65.16;96277.41;4959911;28;20070;-73
2021/04/09 06:28:58;;;;;;;17.40;12.73;;;6.20;55.00;;;3.02;65.04;96269.91;4950952;28;20467;-73
2021/04/09 06:31:24;;;;;;;13.20;9.00;;;6.40;54.30;;;3.21;65.17;96268.25;4935907;28;20118;-68
2021/04/09 06:33:50;;;;;;;13.98;7.00;;;6.60;53.80;;;3.35;64.38;96273.00;4948234;28;20035;-69
2021/04/09 06:36:15;;;;;;;11.25;4.63;;;6.80;53.00;;;3.47;64.47;96258.88;4951512;28;20090;-63
2021/04/09 06:38:41;;;;;;;11.38;6.30;;;7.10;51.80;;;3.63;63.92;96269.53;4951671;28;20117;-72
2021/04/09 06:41:08;;;;;;;13.30;9.23;;;7.60;50.60;;;3.81;63.52;96260.94;4966848;28;20085;-70
2021/04/09 06:43:33;;;;;;;8.48;4.55;;;7.80;49.90;;;3.92;63.42;96266.81;4935904;28;20086;-70
2021/04/09 06:45:59;;;;;;;5.40;3.53;;;7.70;49.60;;;4.11;63.45;96263.28;4946776;28;20039;-73
2021/04/09 06:48:25;;;;;;;6.45;3.15;;;8.00;49.00;;;4.27;63.06;96258.25;4953376;28;20093;-73
2021/04/09 06:50:51;;;;;;;7.32;3.78;;;8.20;48.20;;;4.46;62.04;96251.28;4958400;28;20034;-69
2021/04/09 06:53:16;;;;;;;6.15;3.10;;;8.30;47.60;;;4.68;61.79;96252.66;4943128;28;20034;-68
2021/04/09 06:55:43;;;;;;;5.88;3.33;;;8.60;46.80;;;4.86;60.87;96253.47;4958927;28;20051;-70
2021/04/09 06:58:14;;;;;;;10.00;3.00;;;8.60;47.10;;;5.07;59.13;96260.97;4955494;28;20034;-70
2021/04/09 07:00:40;;;;;;;10.48;7.00;;;8.70;46.70;;;5.22;60.50;96246.44;4948055;28;20511;-71
2021/04/09 07:03:08;;;;;;;20.88;12.45;;;8.70;47.20;;;5.37;58.77;96252.72;4950761;28;20066;-71
2021/04/09 07:05:35;;;;;;;10.23;4.28;;;8.80;46.80;;;5.52;59.26;96256.41;4932548;28;20034;-64
2021/04/09 07:08:00;;;;;;;6.90;3.20;;;9.10;46.80;;;5.70;59.23;96247.72;4948634;28;20543;-69
2021/04/09 07:10:26;;;;;;;5.47;2.88;;;9.30;45.50;;;5.90;58.11;96245.72;4951703;28;20035;-73
2021/04/09 07:13:09;;;;;;;7.68;2.50;;;9.60;44.20;;;6.13;54.44;96250.25;4954559;28;20130;-72
2021/04/09 07:15:39;;;;;;;7.90;3.03;;;10.10;43.00;;;6.36;54.90;96245.25;4955162;28;20047;-73
2021/04/09 07:18:06;;;;;;;6.82;2.83;;;10.20;42.00;;;6.60;57.09;96239.28;4970596;28;20524;-75
2021/04/09 07:20:32;;;;;;;7.30;3.15;;;10.60;41.40;;;6.83;56.07;96241.25;4948366;28;20041;-65
2021/04/09 07:23:00;;;;;;;11.73;3.45;;;10.70;39.60;;;7.03;55.23;96240.78;4938536;28;20047;-64
2021/04/09 07:25:27;;;;;;;9.48;3.67;;;10.80;39.40;;;7.25;54.77;96235.88;4944753;28;20039;-73
2021/04/09 07:28:14;;;;;;;6.53;2.80;;;10.90;38.80;;;7.45;49.38;96237.13;4984515;28;20030;-65
2021/04/09 07:30:43;;;;;;;8.88;2.90;;;10.90;38.50;;;7.63;52.38;96240.38;4953155;28;20075;-64
2021/04/09 07:33:10;;;;;;;5.00;2.58;;;11.10;38.50;;;7.81;52.49;96232.31;4919668;28;20538;-69
2021/04/09 07:35:50;;;;;;;8.43;2.78;;;11.20;37.50;;;8.04;47.74;96231.59;4950166;28;20513;-68
2021/04/09 07:38:30;;;;;;;6.90;2.72;;;11.30;37.60;;;8.25;48.30;96229.22;4918723;29;20134;-73
2021/04/09 07:41:01;;;;;;;6.03;2.27;;;11.50;37.70;;;8.47;49.32;96225.84;4954251;28;20101;-65
2021/04/09 07:43:40;;;;;;;7.10;2.30;;;11.80;37.00;;;8.73;46.85;96228.16;4975527;28;20047;-70
2021/04/09 07:46:07;;;;;;;4.80;2.42;;;12.00;36.50;;;8.96;51.48;96222.91;4958416;28;20038;-68
2021/04/09 07:48:35;;;;;;;6.43;2.50;;;12.20;36.70;;;9.20;50.41;96212.19;4950778;28;20039;-66
2021/04/09 07:51:01;;;;;;;5.95;2.40;;;12.60;37.20;;;9.49;50.95;96214.06;4962909;28;20042;-64
2021/04/09 07:53:30;;;;;;;6.88;2.65;;;12.90;36.80;;;9.81;49.03;96212.94;4948148;28;20040;-65
2021/04/09 07:56:10;;;;;;;7.30;2.38;;;13.30;35.50;;;10.18;46.16;96198.00;4986013;28;20530;-75
2021/04/09 07:58:37;;;;;;;4.63;2.40;;;13.70;35.20;;;10.62;49.45;96205.03;4947190;28;20143;-70
2021/04/09 08:01:04;;;;;;;8.98;2.78;;;14.30;34.00;;;10.97;49.39;96193.66;4964981;28;20034;-69
2021/04/09 08:03:31;;;;;;;7.18;2.63;;;14.40;31.60;;;11.42;48.44;96196.03;4959416;28;20043;-76
2021/04/09 08:06:24;;;;;;;6.13;2.00;;;15.00;30.70;;;11.91;41.73;96195.97;4970125;28;20173;-75
2021/04/09 08:08:50;;;;;;;5.20;2.28;;;15.40;30.40;;;12.36;48.00;96197.19;4937408;28;20514;-67
2021/04/09 08:11:21;;;;;;;4.65;2.40;;;15.70;29.60;;;12.81;40.83;96197.53;4970582;28;20043;-74
2021/04/09 08:14:09;;;;;;;8.32;2.45;;;15.80;29.20;;;13.30;39.02;96191.91;4971693;28;20459;-74
2021/04/09 08:16:43;;;;;;;9.98;3.17;;;16.30;28.80;;;13.72;40.44;96195.13;4951338;28;20031;-73
2021/04/09 08:19:22;;;;;;;4.55;2.58;;;16.60;29.50;;;14.17;39.30;96192.56;4950814;28;20031;-73
2021/04/09 08:21:52;;;;;;;5.25;3.28;;;17.00;28.20;;;14.52;41.65;96195.72;4924769;29;20039;-68
2021/04/09 08:24:31;;;;;;;7.23;3.00;;;17.20;27.90;;;14.82;35.75;96188.03;4959347;28;20042;-74
2021/04/09 08:26:57;;;;;;;4.63;2.65;;;17.30;27.10;;;14.96;40.29;96187.75;4967359;28;20039;-69
2021/04/09 08:29:23;;;;;;;6.35;2.95;;;16.90;26.20;;;15.09;40.02;96192.13;4953424;28;20070;-74
2021/04/09 08:31:50;;;;;;;10.30;2.95;;;17.10;26.80;;;15.22;39.11;96189.38;4953955;28;20039;-73
2021/04/09 08:34:20;;;;;;;5.15;2.38;;;17.20;26.30;;;15.34;38.73;96184.19;4950643;28;20156;-76
2021/04/09 08:36:46;;;;;;;7.57;3.00;;;17.10;25.30;;;15.41;37.62;96187.59;4947440;28;20445;-74
2021/04/09 08:39:14;;;;;;;9.48;2.90;;;17.40;26.00;;;15.55;36.07;96181.16;4953606;28;20045;-75
2021/04/09 08:41:44;;;;;;;12.15;4.63;;;17.60;25.30;;;15.76;35.01;96182.63;4954046;28;20031;-74
2021/04/09 08:44:12;;;;;;;8.45;2.65;;;17.90;25.10;;;15.92;34.63;96182.03;4954736;28;20476;-69
2021/04/09 08:46:37;;;;;;;12.38;2.85;;;18.20;25.10;;;16.10;36.58;96193.72;4964474;28;20035;-72
2021/04/09 08:49:05;;;;;;;6.22;2.97;;;18.30;25.50;;;16.30;35.25;96183.69;4948255;28;20030;-72
2021/04/09 08:51:30;;;;;;;10.20;4.15;;;18.60;24.80;;;16.54;34.68;96185.41;4956151;28;20034;-72
2021/04/09 08:54:21;;;;;;;9.57;5.47;;;18.90;24.60;;;16.76;30.56;96177.00;4961648;28;20134;-75
2021/04/09 08:56:47;;;;;;;;;;;19.20;24.50;;;17.01;31.61;96174.19;4965348;28;20029;-68
2021/04/09 08:59:13;;;;;;;5.25;3.00;;;19.70;25.10;;;17.27;35.68;96163.13;4962214;28;20452;-75
2021/04/09 09:01:39;;;;;;;6.55;2.50;;;19.70;24.40;;;17.48;34.62;96163.63;4959219;28;20035;-75
2021/04/09 09:04:23;;;;;;;5.07;1.95;;;19.80;23.20;;;17.75;29.55;96157.63;4940458;28;20139;-77
2021/04/09 09:06:50;;;;;;;6.22;1.90;;;20.00;23.00;;;17.94;33.59;96157.50;4971317;28;20039;-69
2021/04/09 09:09:28;;;;;;;4.28;1.90;;;20.20;22.50;;;18.15;27.65;96164.88;4946744;28;20051;-73
2021/04/09 09:11:56;;;;;;;3.58;2.10;;;20.20;20.70;;;18.37;32.25;96157.06;4969193;28;20039;-71
2021/04/09 09:14:34;;;;;;;6.65;1.90;;;20.80;21.80;;;18.62;28.19;96151.41;4962762;28;20127;-76
2021/04/09 09:17:18;;;;;;;4.70;1.83;;;20.80;21.50;;;18.87;28.16;96149.25;4951178;28;20472;-75
2021/04/09 09:19:45;;;;;;;9.20;2.30;;;21.10;20.60;;;19.12;30.85;96156.06;4957969;28;20049;-72
2021/04/09 09:22:12;;;;;;;3.58;1.80;;;21.50;21.90;;;19.43;30.96;96155.50;4969988;28;20166;-71
2021/04/09 09:25:04;;;;;;;6.63;2.03;;;21.80;21.70;;;19.73;27.50;96144.53;4949865;28;20030;-72
2021/04/09 09:27:52;;;;;;;3.88;1.70;;;21.90;21.30;;;19.99;26.38;96153.69;4933546;28;20054;-74
2021/04/09 09:30:42;;;;;;;5.40;2.10;;;22.10;20.80;;;20.26;25.82;96142.25;4964596;28;20042;-74
2021/04/09 09:33:23;;;;;;;4.90;1.80;;;22.50;20.60;;;20.52;26.22;96141.53;4967257;28;20499;-75
2021/04/09 09:36:06;;;;;;;2.50;1.48;;;22.70;20.40;;;20.68;25.85;96121.94;4979645;28;20506;-76
2021/04/09 09:38:51;;;;;;;4.15;2.58;;;22.90;20.00;;;20.75;25.89;96122.53;4972365;28;20035;-65
2021/04/09 09:41:38;;;;;;;6.38;4.03;;;22.60;19.70;;;20.83;24.33;96118.63;4969546;28;20440;-69
2021/04/09 09:44:29;;;;;;;4.90;2.42;;;22.90;19.40;;;21.02;24.24;96113.69;4969028;28;20038;-69
2021/04/09 09:47:01;;;;;;;2.75;1.40;;;23.10;18.70;;;21.14;25.43;96100.97;4933763;28;20074;-73
2021/04/09 09:49:28;;;;;;;2.53;1.70;;;23.50;18.70;;;21.26;26.58;96104.28;4984535;28;20049;-69
2021/04/09 09:51:54;;;;;;;3.03;1.77;;;23.40;18.70;;;21.42;27.12;96101.72;4948100;28;20073;-73
2021/04/09 09:54:26;;;;;;;3.70;1.80;;;23.70;18.60;;;21.52;23.27;96102.63;4952318;28;20027;-70
2021/04/09 09:56:54;;;;;;;4.70;1.40;;;23.50;17.00;;;21.52;24.33;96096.47;4952344;28;20057;-67
2021/04/09 09:59:22;;;;;;;4.50;1.80;;;23.50;16.30;;;21.48;24.85;96095.34;4948256;28;20146;-65
2021/04/09 10:01:52;;;;;;;5.47;1.75;;;23.30;16.70;;;21.50;22.21;96087.84;4964996;28;20035;-67
2021/04/09 10:04:24;;;;;;;3.28;1.05;;;23.70;16.70;;;21.58;21.80;96076.69;4940640;28;20406;-66
2021/04/09 10:06:54;;;;;;;2.30;1.30;;;24.00;16.30;;;21.75;24.08;96080.00;4949410;28;20537;-66
2021/04/09 10:09:30;;;;;;;2.35;1.20;;;24.10;15.70;;;22.06;21.14;96080.16;4943908;28;20039;-66
2021/04/09 10:11:57;;;;;;;2.33;1.20;;;24.40;15.10;;;22.35;23.25;96067.94;4968639;28;20107;-67
2021/04/09 10:14:41;;;;;;;2.92;1.27;;;24.40;15.50;;;22.89;21.75;96067.53;4945784;28;20448;-71
2021/04/09 10:17:08;;;;;;;2.70;1.40;;;25.10;15.70;;;23.17;22.39;96064.31;4936393;28;20030;-68
2021/04/09 10:19:34;;;;;;;2.88;1.52;;;24.60;15.90;;;23.35;22.37;96056.78;4967683;28;20086;-69
2021/04/09 10:21:59;;;;;;;2.80;1.73;;;24.80;14.50;;;23.34;21.41;96057.88;4935501;28;20027;-69
2021/04/09 10:24:27;;;;;;;2.83;1.45;;;24.80;14.40;;;23.30;21.00;96052.19;4937057;28;20047;-69
2021/04/09 10:26:55;;;;;;;4.47;1.70;;;24.70;14.60;;;23.37;20.68;96043.91;4969811;28;20089;-69
2021/04/09 10:29:29;;;;;;;3.30;1.63;;;24.90;14.30;;;23.39;20.00;96042.53;4932422;28;20051;-65